Flight Track Log - Related Links

Times and Time Zones

All times are in EDT time to prevent confusion due to time zone crossing. See the SKW4725 flight status page for this flight to view local times or setup timezone preferences in your user account.

Time Position Orientation Groundspeed Altitude Reporting Facility
EDT Latitude Longitude Course Direction KTS MPH feet Rate Location/Type
Tue 11:49:48 AM 33.9456 -118.4447 307° West 167 192 1,100  Level Los Angeles Center
Tue 11:50:50 AM 33.9375 -118.5200 263° West 205 236 3,400 2,710 Climbing Los Angeles Center
Tue 11:51:52 AM 33.9275 -118.6108 262° West 267 307 6,700 3,097 Climbing Los Angeles Center
Tue 11:52:54 AM 33.9175 -118.7081 263° West 273 314 9,800 2,903 Climbing Los Angeles Center
Tue 11:53:00 AM 34.0798 -118.9243 296° West  Level FlightAware Approximate
Tue 11:53:56 AM 33.9092 -118.8003 264° West 279 321 12,700  Level Los Angeles Center
Tue 11:54:00 AM 34.1165 -119.0498 320° Northwest  Level FlightAware Approximate
Tue 11:54:59 AM 33.9200 -118.8969 278° West 310 357 15,400  Level Los Angeles Center
Tue 11:55:00 AM 34.1748 -119.1662 307° West  Level FlightAware Approximate
Tue 11:56:01 AM 33.9725 -118.9842 306° West 319 367 17,500  Level Los Angeles Center
Tue 11:57:03 AM 34.0344 -119.0728 310° West 343 395 20,000 2,468 Climbing Los Angeles Center
Tue 11:58:05 AM 34.1089 -119.1819 309° West 351 404 22,600 2,177 Climbing Los Angeles Center
Tue 11:59:07 AM 34.1717 -119.2775 308° West 360 414 24,500 1,824 Climbing Los Angeles Center
Tue 12:00:10 PM 34.2408 -119.3769 310° West 377 434 26,400 1,920 Climbing Los Angeles Center
Tue 12:01:12 PM 34.3097 -119.4786 309° West 388 447 28,500 1,790 Climbing Los Angeles Center
Tue 12:02:14 PM 34.3783 -119.5808 309° West 389 448 30,100 1,403 Climbing Los Angeles Center
Tue 12:03:16 PM 34.4508 -119.6856 310° West 399 459 31,400 919 Climbing Los Angeles Center
Tue 12:04:18 PM 34.5469 -119.8067 314° West 420 483 32,000 288 Climbing Los Angeles Center
Tue 12:05:21 PM 34.6536 -119.8886 328° Northwest 446 513 32,000  Level Los Angeles Center
Tue 12:06:23 PM 34.7544 -119.9731 325° Northwest 446 513 32,000  Level Los Angeles Center
Tue 12:07:25 PM 34.8533 -120.0550 326° Northwest 437 503 32,000  Level Los Angeles Center
Tue 12:08:27 PM 34.9561 -120.1403 326° Northwest 436 502 32,000  Level Los Angeles Center
Tue 12:09:29 PM 35.0542 -120.2236 325° Northwest 435 501 32,000  Level Los Angeles Center
Tue 12:10:32 PM 35.1717 -120.3203 326° Northwest 429 494 32,000  Level Los Angeles Center
Tue 12:11:34 PM 35.2686 -120.4028 325° Northwest 429 494 32,000  Level Los Angeles Center
Tue 12:12:36 PM 35.3636 -120.4842 325° Northwest 425 489 32,000  Level Los Angeles Center
Tue 12:13:38 PM 35.4633 -120.5700 325° Northwest 439 505 32,000  Level Los Angeles Center
Tue 12:14:40 PM 35.5631 -120.6536 326° Northwest 437 503 32,000  Level Los Angeles Center
Tue 12:15:10 PM 35.6314 -120.7119 325° Northwest 437 503 32,000  Level Oakland Center
Tue 12:16:11 PM 35.7319 -120.7964 326° Northwest 437 503 32,000  Level Oakland Center
Tue 12:17:13 PM 35.8319 -120.8800 326° Northwest 436 502 32,000  Level Oakland Center
Tue 12:18:14 PM 35.9289 -120.9622 326° Northwest 428 493 32,000 -1,024 Level Oakland Center
Tue 12:19:16 PM 36.0236 -121.0453 325° Northwest 421 484 29,900 -2,195 Descending Oakland Center
Tue 12:20:17 PM 36.1167 -121.1281 324° Northwest 416 479 27,500 -2,341 Descending Oakland Center
Tue 12:21:19 PM 36.2139 -121.2086 326° Northwest 417 480 25,100 -2,226 Descending Oakland Center
Tue 12:22:21 PM 36.3081 -121.2914 325° Northwest 417 480 22,900 -2,195 Descending Oakland Center
Tue 12:23:22 PM 36.3958 -121.3689 325° Northwest 396 456 20,600 -2,537 Descending Oakland Center
Tue 12:24:24 PM 36.4986 -121.4594 325° Northwest 381 438 17,700 -2,390 Descending Oakland Center
Tue 12:25:25 PM 36.5803 -121.5297 325° Northwest 362 417 15,700 -1,902 Descending Oakland Center
Tue 12:26:27 PM 36.6569 -121.5983 324° Northwest 344 396 13,800 -1,805 Descending Oakland Center
Tue 12:27:28 PM 36.7369 -121.6453 335° Northwest 323 372 12,000 -1,721 Descending Oakland Center
Tue 12:28:36 PM 36.8333 -121.7000 336° Northwest 276 318 10,100 -1,547 Descending Northern Cal TRACON
Tue 12:29:36 PM 36.8833 -121.7333 332° Northwest 247 284 8,700 -1,077 Descending Northern Cal TRACON
Tue 12:30:33 PM 36.9450 -121.7675 336° Northwest 251 289 8,000 -605 Descending Oakland Center
Tue 12:31:35 PM 37.0067 -121.8042 335° Northwest 249 287 7,500 -780 Descending Oakland Center
Tue 12:32:36 PM 37.0681 -121.8386 336° Northwest 248 285 6,400 -1,122 Descending Oakland Center
Tue 12:33:38 PM 37.1247 -121.8714 335° Northwest 231 266 5,200 -629 Descending Oakland Center
Tue 12:34:40 PM 37.1819 -121.9058 334° Northwest 230 265 5,100 -244 Descending Oakland Center
Tue 12:35:41 PM 37.2508 -121.9483 334° Northwest 230 265 4,700 -634 Descending Oakland Center
Tue 12:36:43 PM 37.3058 -121.9839 333° Northwest 228 262 3,800 -829 Descending Oakland Center
Tue 12:37:44 PM 37.3519 -122.0339 319° Northwest 223 257 3,000 -389 Descending Oakland Center
Tue 12:38:31 PM 37.3833 -122.0833 309° West 224 258 3,100 -505 Climbing Northern Cal TRACON
Tue 12:39:31 PM 37.4333 -122.1167 332° Northwest 217 250 2,100 -480 Descending Northern Cal TRACON
Tue 12:40:36 PM 37.5000 -122.1333 349° North 226 260 2,100  Level Northern Cal TRACON
Tue 12:41:31 PM 37.5000 -122.0833 90° East 206 237 2,100  Level Northern Cal TRACON
Tue 12:42:31 PM 37.4667 -122.0333 130° Southeast 162 186 2,100 -200 Level Northern Cal TRACON
Tue 12:43:31 PM 37.4333 -122.0000 142° Southeast 151 174 1,700 -550 Descending Northern Cal TRACON
Tue 12:44:31 PM 37.4000 -121.9667 142° Southeast 132 152 1,000 -700 Descending Northern Cal TRACON
Tue 12:45:31 PM 37.3833 -121.9500 142° Southeast 132 152 300 -700 Descending Northern Cal TRACON

Login

Don't have an account? Register now (free) for customized features, flight alerts, and more!